sensor_id;sensor_type;location;lat;lon;timestamp;pressure;altitude;pressure_sealevel;temperature;humidity
76260;BME280;65076;52.362;6.588;2023-05-17T00:00:24;102357.28;;;9.66;74.87
76260;BME280;65076;52.362;6.588;2023-05-17T00:02:53;102358.06;;;9.71;75.42
76260;BME280;65076;52.362;6.588;2023-05-17T00:05:21;102359.47;;;9.89;76.07
76260;BME280;65076;52.362;6.588;2023-05-17T00:07:49;102362.16;;;9.91;75.26
76260;BME280;65076;52.362;6.588;2023-05-17T00:10:18;102364.38;;;10.13;73.74
76260;BME280;65076;52.362;6.588;2023-05-17T00:12:46;102361.69;;;10.12;73.77
76260;BME280;65076;52.362;6.588;2023-05-17T00:15:14;102365.38;;;10.49;72.67
76260;BME280;65076;52.362;6.588;2023-05-17T00:17:41;102359.66;;;10.25;73.38
76260;BME280;65076;52.362;6.588;2023-05-17T00:20:11;102359.09;;;9.64;75.46
76260;BME280;65076;52.362;6.588;2023-05-17T00:22:40;102364.19;;;9.79;75.45
76260;BME280;65076;52.362;6.588;2023-05-17T00:25:08;102362.78;;;9.60;75.81
76260;BME280;65076;52.362;6.588;2023-05-17T00:27:36;102360.19;;;9.56;75.90
76260;BME280;65076;52.362;6.588;2023-05-17T00:30:05;102364.44;;;10.10;75.39
76260;BME280;65076;52.362;6.588;2023-05-17T00:32:34;102357.53;;;9.96;73.46
76260;BME280;65076;52.362;6.588;2023-05-17T00:35:03;102360.31;;;9.94;75.60
76260;BME280;65076;52.362;6.588;2023-05-17T00:37:32;102357.63;;;9.93;75.65
76260;BME280;65076;52.362;6.588;2023-05-17T00:40:01;102363.16;;;9.87;75.79
76260;BME280;65076;52.362;6.588;2023-05-17T00:42:29;102355.47;;;9.65;76.05
76260;BME280;65076;52.362;6.588;2023-05-17T00:44:57;102364.03;;;9.43;77.32
76260;BME280;65076;52.362;6.588;2023-05-17T00:47:25;102363.28;;;9.79;77.66
76260;BME280;65076;52.362;6.588;2023-05-17T00:49:53;102355.81;;;9.93;77.86
76260;BME280;65076;52.362;6.588;2023-05-17T00:52:21;102349.75;;;9.82;77.51
76260;BME280;65076;52.362;6.588;2023-05-17T00:54:51;102347.31;;;10.51;75.71
76260;BME280;65076;52.362;6.588;2023-05-17T00:57:19;102345.25;;;10.23;76.95
76260;BME280;65076;52.362;6.588;2023-05-17T00:59:48;102348.53;;;10.37;75.59
76260;BME280;65076;52.362;6.588;2023-05-17T01:02:17;102343.44;;;10.97;75.04
76260;BME280;65076;52.362;6.588;2023-05-17T01:04:46;102353.50;;;11.26;73.07
76260;BME280;65076;52.362;6.588;2023-05-17T01:07:14;102354.84;;;11.43;72.48
76260;BME280;65076;52.362;6.588;2023-05-17T01:09:43;102356.59;;;11.12;73.66
76260;BME280;65076;52.362;6.588;2023-05-17T01:12:40;102356.66;;;10.74;75.15
76260;BME280;65076;52.362;6.588;2023-05-17T01:15:22;102358.66;;;11.02;75.07
76260;BME280;65076;52.362;6.588;2023-05-17T01:17:56;102358.78;;;10.98;75.46
76260;BME280;65076;52.362;6.588;2023-05-17T01:20:43;102366.56;;;10.75;74.86
76260;BME280;65076;52.362;6.588;2023-05-17T01:23:29;102366.09;;;11.28;73.95
76260;BME280;65076;52.362;6.588;2023-05-17T01:26:15;102364.38;;;10.90;74.73
76260;BME280;65076;52.362;6.588;2023-05-17T01:28:52;102375.75;;;11.04;73.89
76260;BME280;65076;52.362;6.588;2023-05-17T01:31:22;102369.47;;;11.04;73.86
76260;BME280;65076;52.362;6.588;2023-05-17T01:33:50;102362.31;;;11.35;73.35
76260;BME280;65076;52.362;6.588;2023-05-17T01:36:18;102367.72;;;11.01;74.52
76260;BME280;65076;52.362;6.588;2023-05-17T01:38:46;102365.66;;;11.11;73.97
76260;BME280;65076;52.362;6.588;2023-05-17T01:41:21;102371.53;;;11.28;73.77
76260;BME280;65076;52.362;6.588;2023-05-17T01:44:03;102375.97;;;11.63;71.61
76260;BME280;65076;52.362;6.588;2023-05-17T01:46:39;102377.59;;;11.04;73.56
76260;BME280;65076;52.362;6.588;2023-05-17T01:49:16;102381.03;;;11.44;72.74
76260;BME280;65076;52.362;6.588;2023-05-17T01:51:52;102390.03;;;10.74;74.84
76260;BME280;65076;52.362;6.588;2023-05-17T01:54:30;102386.69;;;11.00;73.43
76260;BME280;65076;52.362;6.588;2023-05-17T01:57:05;102382.59;;;10.84;73.97
76260;BME280;65076;52.362;6.588;2023-05-17T01:59:35;102391.19;;;11.01;72.74
76260;BME280;65076;52.362;6.588;2023-05-17T02:02:06;102390.16;;;11.07;73.21
76260;BME280;65076;52.362;6.588;2023-05-17T02:04:35;102391.78;;;11.14;72.42
76260;BME280;65076;52.362;6.588;2023-05-17T02:07:04;102385.91;;;10.95;72.96
76260;BME280;65076;52.362;6.588;2023-05-17T02:09:32;102393.34;;;10.87;73.05
76260;BME280;65076;52.362;6.588;2023-05-17T02:11:59;102385.88;;;10.98;71.97
76260;BME280;65076;52.362;6.588;2023-05-17T02:14:27;102392.75;;;11.10;70.99
76260;BME280;65076;52.362;6.588;2023-05-17T02:16:57;102396.47;;;11.07;72.03
76260;BME280;65076;52.362;6.588;2023-05-17T02:19:25;102391.34;;;10.95;71.39
76260;BME280;65076;52.362;6.588;2023-05-17T02:21:53;102391.66;;;10.46;72.80
76260;BME280;65076;52.362;6.588;2023-05-17T02:24:21;102397.91;;;10.85;71.97
76260;BME280;65076;52.362;6.588;2023-05-17T02:26:49;102393.78;;;10.69;72.47
76260;BME280;65076;52.362;6.588;2023-05-17T02:29:17;102392.63;;;10.79;71.63
76260;BME280;65076;52.362;6.588;2023-05-17T02:31:44;102398.22;;;10.73;71.03
76260;BME280;65076;52.362;6.588;2023-05-17T02:34:14;102402.53;;;10.80;71.24
76260;BME280;65076;52.362;6.588;2023-05-17T02:36:42;102410.81;;;10.74;71.44
76260;BME280;65076;52.362;6.588;2023-05-17T02:39:10;102409.38;;;10.57;71.58
76260;BME280;65076;52.362;6.588;2023-05-17T02:41:38;102403.13;;;10.55;70.84
76260;BME280;65076;52.362;6.588;2023-05-17T02:44:06;102408.50;;;10.15;73.34
76260;BME280;65076;52.362;6.588;2023-05-17T02:46:34;102406.44;;;10.68;72.17
76260;BME280;65076;52.362;6.588;2023-05-17T02:49:03;102406.28;;;10.74;70.40
76260;BME280;65076;52.362;6.588;2023-05-17T02:51:33;102408.28;;;10.28;71.70
76260;BME280;65076;52.362;6.588;2023-05-17T02:54:01;102414.28;;;10.80;70.87
76260;BME280;65076;52.362;6.588;2023-05-17T02:56:29;102411.78;;;10.71;69.98
76260;BME280;65076;52.362;6.588;2023-05-17T02:58:57;102410.66;;;10.80;69.41
76260;BME280;65076;52.362;6.588;2023-05-17T03:01:26;102409.72;;;10.82;69.41
76260;BME280;65076;52.362;6.588;2023-05-17T03:03:54;102413.69;;;10.26;70.21
76260;BME280;65076;52.362;6.588;2023-05-17T03:06:22;102416.88;;;10.46;70.04
76260;BME280;65076;52.362;6.588;2023-05-17T03:08:52;102422.25;;;9.60;73.60
76260;BME280;65076;52.362;6.588;2023-05-17T03:11:20;102420.44;;;9.61;73.65
76260;BME280;65076;52.362;6.588;2023-05-17T03:13:47;102426.94;;;9.49;74.07
76260;BME280;65076;52.362;6.588;2023-05-17T03:16:17;102430.84;;;9.82;72.31
76260;BME280;65076;52.362;6.588;2023-05-17T03:18:45;102428.47;;;10.10;71.02
76260;BME280;65076;52.362;6.588;2023-05-17T03:21:13;102433.06;;;10.05;71.92
76260;BME280;65076;52.362;6.588;2023-05-17T03:23:41;102435.03;;;9.98;70.38
76260;BME280;65076;52.362;6.588;2023-05-17T03:26:10;102435.84;;;9.56;73.29
76260;BME280;65076;52.362;6.588;2023-05-17T03:28:38;102437.75;;;9.51;73.27
76260;BME280;65076;52.362;6.588;2023-05-17T03:31:06;102443.28;;;9.91;71.50
76260;BME280;65076;52.362;6.588;2023-05-17T03:33:35;102453.06;;;9.98;70.18
76260;BME280;65076;52.362;6.588;2023-05-17T03:36:03;102450.16;;;10.07;70.82
76260;BME280;65076;52.362;6.588;2023-05-17T03:38:32;102449.03;;;10.20;70.67
76260;BME280;65076;52.362;6.588;2023-05-17T03:41:00;102456.38;;;10.10;70.42
76260;BME280;65076;52.362;6.588;2023-05-17T03:43:29;102462.47;;;10.23;69.98
76260;BME280;65076;52.362;6.588;2023-05-17T03:45:57;102456.94;;;10.29;69.35
76260;BME280;65076;52.362;6.588;2023-05-17T03:48:25;102461.53;;;10.26;69.13
76260;BME280;65076;52.362;6.588;2023-05-17T03:50:53;102475.22;;;10.16;69.42
76260;BME280;65076;52.362;6.588;2023-05-17T03:53:21;102477.03;;;10.16;69.45
76260;BME280;65076;52.362;6.588;2023-05-17T03:55:49;102476.81;;;10.28;69.35
76260;BME280;65076;52.362;6.588;2023-05-17T03:58:17;102467.97;;;10.20;69.92
76260;BME280;65076;52.362;6.588;2023-05-17T04:00:46;102471.25;;;10.36;69.04
76260;BME280;65076;52.362;6.588;2023-05-17T04:03:14;102479.59;;;10.24;69.61
76260;BME280;65076;52.362;6.588;2023-05-17T04:05:45;102485.22;;;10.11;69.12
76260;BME280;65076;52.362;6.588;2023-05-17T04:08:13;102485.03;;;10.22;69.82
76260;BME280;65076;52.362;6.588;2023-05-17T04:10:43;102488.13;;;10.02;70.10
76260;BME280;65076;52.362;6.588;2023-05-17T04:13:11;102498.50;;;9.77;70.87
76260;BME280;65076;52.362;6.588;2023-05-17T04:15:39;102494.03;;;10.23;70.22
76260;BME280;65076;52.362;6.588;2023-05-17T04:18:08;102487.31;;;10.42;69.80
76260;BME280;65076;52.362;6.588;2023-05-17T04:20:37;102493.41;;;10.53;69.82
76260;BME280;65076;52.362;6.588;2023-05-17T04:23:04;102499.34;;;10.70;68.79
76260;BME280;65076;52.362;6.588;2023-05-17T04:25:32;102495.31;;;10.48;69.06
76260;BME280;65076;52.362;6.588;2023-05-17T04:28:00;102504.44;;;10.84;67.97
76260;BME280;65076;52.362;6.588;2023-05-17T04:30:29;102504.13;;;10.99;68.57
76260;BME280;65076;52.362;6.588;2023-05-17T04:32:56;102505.94;;;10.97;67.78
76260;BME280;65076;52.362;6.588;2023-05-17T04:35:26;102510.38;;;11.73;66.61
76260;BME280;65076;52.362;6.588;2023-05-17T04:37:55;102519.78;;;11.94;64.80
76260;BME280;65076;52.362;6.588;2023-05-17T04:40:22;102520.41;;;12.36;64.27
76260;BME280;65076;52.362;6.588;2023-05-17T04:42:51;102520.28;;;12.71;62.60
76260;BME280;65076;52.362;6.588;2023-05-17T04:45:19;102513.22;;;12.94;61.09
76260;BME280;65076;52.362;6.588;2023-05-17T04:47:47;102517.75;;;13.50;60.36
76260;BME280;65076;52.362;6.588;2023-05-17T04:50:16;102531.28;;;13.52;58.99
76260;BME280;65076;52.362;6.588;2023-05-17T04:52:46;102525.97;;;12.31;62.17
76260;BME280;65076;52.362;6.588;2023-05-17T04:55:14;102527.84;;;13.47;59.42
76260;BME280;65076;52.362;6.588;2023-05-17T04:57:42;102535.19;;;13.45;60.06
76260;BME280;65076;52.362;6.588;2023-05-17T05:00:11;102526.84;;;14.02;57.92
76260;BME280;65076;52.362;6.588;2023-05-17T05:02:41;102533.53;;;14.66;57.35
76260;BME280;65076;52.362;6.588;2023-05-17T05:05:09;102536.91;;;15.41;53.98
76260;BME280;65076;52.362;6.588;2023-05-17T05:07:37;102544.22;;;14.96;54.99
76260;BME280;65076;52.362;6.588;2023-05-17T05:10:07;102544.66;;;14.85;55.06
76260;BME280;65076;52.362;6.588;2023-05-17T05:12:36;102547.84;;;15.18;54.10
76260;BME280;65076;52.362;6.588;2023-05-17T05:15:05;102556.88;;;15.20;53.46
76260;BME280;65076;52.362;6.588;2023-05-17T05:17:33;102560.28;;;14.30;55.66
76260;BME280;65076;52.362;6.588;2023-05-17T05:20:02;102560.16;;;14.60;55.92
76260;BME280;65076;52.362;6.588;2023-05-17T05:22:31;102564.66;;;14.84;54.49
76260;BME280;65076;52.362;6.588;2023-05-17T05:24:59;102563.63;;;14.87;55.18
76260;BME280;65076;52.362;6.588;2023-05-17T05:27:28;102577.78;;;15.86;51.66
76260;BME280;65076;52.362;6.588;2023-05-17T05:29:56;102576.41;;;15.76;52.00
76260;BME280;65076;52.362;6.588;2023-05-17T05:32:24;102574.13;;;15.44;50.94
76260;BME280;65076;52.362;6.588;2023-05-17T05:34:52;102580.72;;;14.92;53.09
76260;BME280;65076;52.362;6.588;2023-05-17T05:37:20;102582.56;;;14.91;53.51
76260;BME280;65076;52.362;6.588;2023-05-17T05:39:48;102586.88;;;15.87;51.05
76260;BME280;65076;52.362;6.588;2023-05-17T05:42:16;102585.03;;;15.65;49.96
76260;BME280;65076;52.362;6.588;2023-05-17T05:44:45;102593.59;;;16.00;49.01
76260;BME280;65076;52.362;6.588;2023-05-17T05:47:13;102586.66;;;16.33;48.87
76260;BME280;65076;52.362;6.588;2023-05-17T05:49:41;102596.66;;;15.25;49.98
76260;BME280;65076;52.362;6.588;2023-05-17T05:52:09;102598.22;;;15.76;50.63
76260;BME280;65076;52.362;6.588;2023-05-17T05:54:37;102602.28;;;16.09;50.54
76260;BME280;65076;52.362;6.588;2023-05-17T05:57:20;102603.44;;;16.04;49.16
76260;BME280;65076;52.362;6.588;2023-05-17T05:59:50;102603.97;;;16.12;48.70
76260;BME280;65076;52.362;6.588;2023-05-17T06:02:18;102607.06;;;15.83;48.47
76260;BME280;65076;52.362;6.588;2023-05-17T06:04:47;102617.63;;;16.12;48.32
76260;BME280;65076;52.362;6.588;2023-05-17T06:07:15;102620.47;;;15.89;47.20
76260;BME280;65076;52.362;6.588;2023-05-17T06:09:43;102619.56;;;16.10;46.11
76260;BME280;65076;52.362;6.588;2023-05-17T06:12:11;102622.59;;;16.02;45.76
76260;BME280;65076;52.362;6.588;2023-05-17T06:14:39;102629.41;;;15.71;46.16
76260;BME280;65076;52.362;6.588;2023-05-17T06:17:08;102625.44;;;16.21;44.60
76260;BME280;65076;52.362;6.588;2023-05-17T06:19:36;102632.22;;;16.33;44.01
76260;BME280;65076;52.362;6.588;2023-05-17T06:22:05;102629.81;;;16.67;43.21
76260;BME280;65076;52.362;6.588;2023-05-17T06:24:32;102642.44;;;16.90;42.47
76260;BME280;65076;52.362;6.588;2023-05-17T06:27:00;102637.38;;;16.61;42.61
76260;BME280;65076;52.362;6.588;2023-05-17T06:29:28;102641.97;;;17.38;40.99
76260;BME280;65076;52.362;6.588;2023-05-17T06:31:56;102646.09;;;18.03;39.76
76260;BME280;65076;52.362;6.588;2023-05-17T06:34:26;102645.13;;;17.29;40.97
76260;BME280;65076;52.362;6.588;2023-05-17T06:36:57;102654.41;;;17.45;41.15
76260;BME280;65076;52.362;6.588;2023-05-17T06:39:25;102657.97;;;17.85;38.32
76260;BME280;65076;52.362;6.588;2023-05-17T06:41:53;102655.34;;;18.36;37.53
76260;BME280;65076;52.362;6.588;2023-05-17T06:44:22;102664.78;;;17.76;38.44
76260;BME280;65076;52.362;6.588;2023-05-17T06:46:50;102659.34;;;17.56;37.84
76260;BME280;65076;52.362;6.588;2023-05-17T06:49:18;102665.84;;;17.34;37.51
76260;BME280;65076;52.362;6.588;2023-05-17T06:51:47;102672.78;;;16.84;37.24
76260;BME280;65076;52.362;6.588;2023-05-17T06:54:15;102663.22;;;16.94;38.71
76260;BME280;65076;52.362;6.588;2023-05-17T06:56:47;102669.16;;;16.63;37.59
76260;BME280;65076;52.362;6.588;2023-05-17T06:59:15;102673.69;;;16.64;38.74
76260;BME280;65076;52.362;6.588;2023-05-17T07:01:44;102672.38;;;17.51;38.77
76260;BME280;65076;52.362;6.588;2023-05-17T07:04:12;102676.91;;;17.52;37.38
76260;BME280;65076;52.362;6.588;2023-05-17T07:06:40;102671.28;;;17.92;36.72
76260;BME280;65076;52.362;6.588;2023-05-17T07:09:09;102675.06;;;17.13;38.13
76260;BME280;65076;52.362;6.588;2023-05-17T07:11:37;102673.59;;;18.72;35.79
76260;BME280;65076;52.362;6.588;2023-05-17T07:14:05;102693.25;;;18.27;36.25
76260;BME280;65076;52.362;6.588;2023-05-17T07:16:33;102685.53;;;17.63;36.10
76260;BME280;65076;52.362;6.588;2023-05-17T07:19:01;102689.63;;;18.09;37.06
76260;BME280;65076;52.362;6.588;2023-05-17T07:21:30;102690.03;;;18.18;35.92
76260;BME280;65076;52.362;6.588;2023-05-17T07:23:58;102695.94;;;17.92;35.17
76260;BME280;65076;52.362;6.588;2023-05-17T07:26:28;102697.78;;;18.63;34.54
76260;BME280;65076;52.362;6.588;2023-05-17T07:28:56;102697.84;;;18.79;35.16
76260;BME280;65076;52.362;6.588;2023-05-17T07:31:23;102704.34;;;17.50;35.91
76260;BME280;65076;52.362;6.588;2023-05-17T07:33:51;102707.50;;;16.82;37.25
76260;BME280;65076;52.362;6.588;2023-05-17T07:36:20;102709.34;;;16.81;37.61
76260;BME280;65076;52.362;6.588;2023-05-17T07:38:48;102705.56;;;16.22;38.29
76260;BME280;65076;52.362;6.588;2023-05-17T07:41:16;102705.16;;;16.31;38.85
76260;BME280;65076;52.362;6.588;2023-05-17T07:43:49;102706.28;;;17.28;37.69
76260;BME280;65076;52.362;6.588;2023-05-17T07:46:17;102702.31;;;17.93;36.46
76260;BME280;65076;52.362;6.588;2023-05-17T07:48:45;102707.19;;;18.41;35.81
76260;BME280;65076;52.362;6.588;2023-05-17T07:51:13;102708.56;;;17.18;37.18
76260;BME280;65076;52.362;6.588;2023-05-17T07:53:41;102708.13;;;17.85;38.52
76260;BME280;65076;52.362;6.588;2023-05-17T07:56:09;102717.69;;;17.76;36.62
76260;BME280;65076;52.362;6.588;2023-05-17T07:58:37;102708.25;;;19.07;34.66
76260;BME280;65076;52.362;6.588;2023-05-17T08:01:06;102720.72;;;19.30;33.03
76260;BME280;65076;52.362;6.588;2023-05-17T08:03:36;102722.16;;;19.54;32.90
76260;BME280;65076;52.362;6.588;2023-05-17T08:06:05;102718.00;;;20.10;33.77
76260;BME280;65076;52.362;6.588;2023-05-17T08:08:33;102728.53;;;19.37;33.80
76260;BME280;65076;52.362;6.588;2023-05-17T08:11:01;102723.22;;;20.91;29.38
76260;BME280;65076;52.362;6.588;2023-05-17T08:13:28;102721.53;;;21.47;29.93
76260;BME280;65076;52.362;6.588;2023-05-17T08:15:56;102719.63;;;20.29;32.36
76260;BME280;65076;52.362;6.588;2023-05-17T08:18:40;102723.59;;;21.58;30.33
76260;BME280;65076;52.362;6.588;2023-05-17T08:21:09;102711.47;;;20.12;31.12
76260;BME280;65076;52.362;6.588;2023-05-17T08:23:39;102715.94;;;21.34;31.25
76260;BME280;65076;52.362;6.588;2023-05-17T08:26:07;102722.97;;;20.80;30.17
76260;BME280;65076;52.362;6.588;2023-05-17T08:28:36;102725.91;;;19.84;32.23
76260;BME280;65076;52.362;6.588;2023-05-17T08:31:05;102739.00;;;18.96;34.60
76260;BME280;65076;52.362;6.588;2023-05-17T08:33:33;102741.28;;;18.16;34.13
76260;BME280;65076;52.362;6.588;2023-05-17T08:36:03;102741.22;;;17.81;34.94
76260;BME280;65076;52.362;6.588;2023-05-17T08:38:33;102741.47;;;17.37;36.44
76260;BME280;65076;52.362;6.588;2023-05-17T08:41:01;102742.28;;;18.69;35.19
76260;BME280;65076;52.362;6.588;2023-05-17T08:43:30;102740.88;;;17.88;35.04
76260;BME280;65076;52.362;6.588;2023-05-17T08:45:58;102737.34;;;18.22;34.95
76260;BME280;65076;52.362;6.588;2023-05-17T08:48:27;102735.00;;;18.14;35.22
76260;BME280;65076;52.362;6.588;2023-05-17T08:50:57;102738.25;;;17.85;35.99
76260;BME280;65076;52.362;6.588;2023-05-17T08:53:27;102738.59;;;17.59;37.14
76260;BME280;65076;52.362;6.588;2023-05-17T08:55:57;102747.66;;;17.79;35.98
76260;BME280;65076;52.362;6.588;2023-05-17T08:58:33;102745.25;;;17.73;35.76
76260;BME280;65076;52.362;6.588;2023-05-17T09:01:22;102751.66;;;16.93;36.33
76260;BME280;65076;52.362;6.588;2023-05-17T09:03:52;102749.81;;;17.73;35.53
76260;BME280;65076;52.362;6.588;2023-05-17T09:06:21;102744.78;;;17.44;36.63
76260;BME280;65076;52.362;6.588;2023-05-17T09:08:53;102754.34;;;17.74;35.69
76260;BME280;65076;52.362;6.588;2023-05-17T09:11:25;102746.13;;;18.83;36.75
76260;BME280;65076;52.362;6.588;2023-05-17T09:13:57;102745.94;;;18.69;32.61
76260;BME280;65076;52.362;6.588;2023-05-17T09:16:27;102738.50;;;19.88;31.35
76260;BME280;65076;52.362;6.588;2023-05-17T09:18:56;102736.81;;;20.49;29.74
76260;BME280;65076;52.362;6.588;2023-05-17T09:21:26;102745.69;;;19.91;30.71
76260;BME280;65076;52.362;6.588;2023-05-17T09:23:57;102745.84;;;20.66;29.49
76260;BME280;65076;52.362;6.588;2023-05-17T09:26:37;102733.03;;;21.25;28.19
76260;BME280;65076;52.362;6.588;2023-05-17T09:29:08;102729.72;;;21.34;28.02
76260;BME280;65076;52.362;6.588;2023-05-17T09:31:37;102741.88;;;21.30;28.39
76260;BME280;65076;52.362;6.588;2023-05-17T09:34:05;102748.31;;;21.01;28.91
76260;BME280;65076;52.362;6.588;2023-05-17T09:36:35;102745.97;;;20.49;30.20
76260;BME280;65076;52.362;6.588;2023-05-17T09:39:06;102748.84;;;19.18;30.87
76260;BME280;65076;52.362;6.588;2023-05-17T09:41:44;102737.78;;;21.23;29.63
76260;BME280;65076;52.362;6.588;2023-05-17T09:44:14;102752.78;;;20.26;29.49
76260;BME280;65076;52.362;6.588;2023-05-17T09:46:45;102749.50;;;20.20;30.56
76260;BME280;65076;52.362;6.588;2023-05-17T09:49:14;102738.66;;;21.52;28.29
76260;BME280;65076;52.362;6.588;2023-05-17T09:51:46;102742.88;;;20.99;28.04
76260;BME280;65076;52.362;6.588;2023-05-17T09:54:16;102741.06;;;20.54;29.64
76260;BME280;65076;52.362;6.588;2023-05-17T09:56:52;102738.25;;;20.56;30.23
76260;BME280;65076;52.362;6.588;2023-05-17T09:59:23;102739.44;;;19.56;30.81
76260;BME280;65076;52.362;6.588;2023-05-17T10:01:55;102741.50;;;20.15;31.02
76260;BME280;65076;52.362;6.588;2023-05-17T10:04:28;102738.06;;;21.33;29.14
76260;BME280;65076;52.362;6.588;2023-05-17T10:07:00;102735.78;;;20.81;29.47
76260;BME280;65076;52.362;6.588;2023-05-17T10:09:31;102751.75;;;21.04;30.13
76260;BME280;65076;52.362;6.588;2023-05-17T10:12:03;102743.19;;;19.86;31.00
76260;BME280;65076;52.362;6.588;2023-05-17T10:14:34;102759.75;;;19.19;31.67
76260;BME280;65076;52.362;6.588;2023-05-17T10:17:05;102763.28;;;18.70;32.66
76260;BME280;65076;52.362;6.588;2023-05-17T10:19:36;102763.03;;;18.38;33.10
76260;BME280;65076;52.362;6.588;2023-05-17T10:22:05;102762.63;;;19.33;32.99
76260;BME280;65076;52.362;6.588;2023-05-17T10:24:50;102760.06;;;20.43;31.24
76260;BME280;65076;52.362;6.588;2023-05-17T10:27:19;102758.44;;;21.44;28.47
76260;BME280;65076;52.362;6.588;2023-05-17T10:29:48;102753.19;;;21.26;28.30
76260;BME280;65076;52.362;6.588;2023-05-17T10:32:18;102751.44;;;20.65;29.97
76260;BME280;65076;52.362;6.588;2023-05-17T10:34:52;102743.56;;;21.33;28.31
76260;BME280;65076;52.362;6.588;2023-05-17T10:37:36;102745.25;;;21.92;27.16
76260;BME280;65076;52.362;6.588;2023-05-17T10:40:09;102748.31;;;21.45;28.68
76260;BME280;65076;52.362;6.588;2023-05-17T10:42:41;102758.13;;;21.77;27.64
76260;BME280;65076;52.362;6.588;2023-05-17T10:45:19;102751.19;;;20.22;28.16
76260;BME280;65076;52.362;6.588;2023-05-17T10:47:50;102747.81;;;20.17;28.91
76260;BME280;65076;52.362;6.588;2023-05-17T10:50:23;102754.41;;;21.06;29.30
76260;BME280;65076;52.362;6.588;2023-05-17T10:52:53;102748.19;;;21.32;28.09
76260;BME280;65076;52.362;6.588;2023-05-17T10:55:25;102742.59;;;21.48;27.16
76260;BME280;65076;52.362;6.588;2023-05-17T10:58:15;102743.06;;;22.79;27.76
76260;BME280;65076;52.362;6.588;2023-05-17T11:00:47;102748.63;;;23.04;27.61
76260;BME280;65076;52.362;6.588;2023-05-17T11:03:19;102739.50;;;22.23;25.73
76260;BME280;65076;52.362;6.588;2023-05-17T11:06:10;102725.47;;;24.19;25.36
76260;BME280;65076;52.362;6.588;2023-05-17T11:09:05;102736.31;;;22.83;25.50
76260;BME280;65076;52.362;6.588;2023-05-17T11:11:35;102737.38;;;21.86;26.71
76260;BME280;65076;52.362;6.588;2023-05-17T11:14:03;102737.81;;;21.07;27.65
76260;BME280;65076;52.362;6.588;2023-05-17T11:16:34;102734.31;;;22.05;27.38
76260;BME280;65076;52.362;6.588;2023-05-17T11:19:07;102728.16;;;22.28;26.41
76260;BME280;65076;52.362;6.588;2023-05-17T11:21:44;102726.28;;;21.59;27.72
76260;BME280;65076;52.362;6.588;2023-05-17T11:24:15;102727.53;;;21.25;27.95
76260;BME280;65076;52.362;6.588;2023-05-17T11:26:53;102738.38;;;20.68;28.44
76260;BME280;65076;52.362;6.588;2023-05-17T11:29:27;102735.25;;;20.75;27.85
76260;BME280;65076;52.362;6.588;2023-05-17T11:31:56;102739.81;;;20.90;28.39
76260;BME280;65076;52.362;6.588;2023-05-17T11:34:26;102729.16;;;21.13;27.55
76260;BME280;65076;52.362;6.588;2023-05-17T11:36:54;102727.53;;;21.68;28.56
76260;BME280;65076;52.362;6.588;2023-05-17T11:39:23;102727.25;;;21.58;27.40
76260;BME280;65076;52.362;6.588;2023-05-17T11:41:54;102719.81;;;22.69;26.43
76260;BME280;65076;52.362;6.588;2023-05-17T11:44:23;102724.50;;;22.27;25.63
76260;BME280;65076;52.362;6.588;2023-05-17T11:46:59;102732.63;;;21.88;26.68
76260;BME280;65076;52.362;6.588;2023-05-17T11:49:30;102724.69;;;22.38;26.50
76260;BME280;65076;52.362;6.588;2023-05-17T11:52:03;102720.66;;;22.57;26.00
76260;BME280;65076;52.362;6.588;2023-05-17T11:54:32;102709.38;;;22.74;25.20
76260;BME280;65076;52.362;6.588;2023-05-17T11:57:03;102717.41;;;22.77;26.86
76260;BME280;65076;52.362;6.588;2023-05-17T11:59:35;102709.53;;;23.86;24.16
76260;BME280;65076;52.362;6.588;2023-05-17T12:02:05;102723.78;;;22.11;25.78
76260;BME280;65076;52.362;6.588;2023-05-17T12:04:35;102720.50;;;21.05;28.06
76260;BME280;65076;52.362;6.588;2023-05-17T12:07:07;102722.94;;;21.82;28.19
76260;BME280;65076;52.362;6.588;2023-05-17T12:09:37;102725.88;;;22.34;27.77
76260;BME280;65076;52.362;6.588;2023-05-17T12:12:07;102717.09;;;21.30;28.22
76260;BME280;65076;52.362;6.588;2023-05-17T12:14:36;102725.19;;;21.62;27.44
76260;BME280;65076;52.362;6.588;2023-05-17T12:17:07;102715.09;;;21.04;28.50
76260;BME280;65076;52.362;6.588;2023-05-17T12:19:35;102717.78;;;20.76;29.06
76260;BME280;65076;52.362;6.588;2023-05-17T12:22:05;102724.88;;;20.94;29.06
76260;BME280;65076;52.362;6.588;2023-05-17T12:24:38;102728.75;;;19.83;30.32
76260;BME280;65076;52.362;6.588;2023-05-17T12:27:09;102728.66;;;20.00;30.03
76260;BME280;65076;52.362;6.588;2023-05-17T12:29:38;102724.88;;;19.54;30.51
76260;BME280;65076;52.362;6.588;2023-05-17T12:32:07;102714.91;;;20.16;30.02
76260;BME280;65076;52.362;6.588;2023-05-17T12:34:37;102718.19;;;19.91;30.75
76260;BME280;65076;52.362;6.588;2023-05-17T12:37:06;102722.84;;;20.97;29.30
76260;BME280;65076;52.362;6.588;2023-05-17T12:39:36;102719.72;;;20.73;30.42
76260;BME280;65076;52.362;6.588;2023-05-17T12:42:06;102708.47;;;21.22;30.07
76260;BME280;65076;52.362;6.588;2023-05-17T12:44:36;102710.88;;;22.38;27.28
76260;BME280;65076;52.362;6.588;2023-05-17T12:47:04;102712.59;;;21.72;28.21
76260;BME280;65076;52.362;6.588;2023-05-17T12:49:37;102720.03;;;20.83;29.93
76260;BME280;65076;52.362;6.588;2023-05-17T12:52:06;102713.06;;;20.01;31.14
76260;BME280;65076;52.362;6.588;2023-05-17T12:54:34;102707.00;;;20.10;32.20
76260;BME280;65076;52.362;6.588;2023-05-17T12:57:08;102706.31;;;20.97;30.84
76260;BME280;65076;52.362;6.588;2023-05-17T12:59:47;102715.31;;;20.71;28.96
76260;BME280;65076;52.362;6.588;2023-05-17T13:02:15;102709.94;;;21.42;28.74
76260;BME280;65076;52.362;6.588;2023-05-17T13:04:45;102704.66;;;22.35;27.61